sensor_id;sensor_type;location;lat;lon;timestamp;pressure;altitude;pressure_sealevel;temperature;humidity
10145;BME280;5113;41.822;23.564;2023-12-14T00:00:53;-11246.84;;;11.30;52.22
10145;BME280;5113;41.822;23.564;2023-12-14T00:04:00;-11178.63;;;8.83;59.14
10145;BME280;5113;41.822;23.564;2023-12-14T00:07:07;-11248.66;;;11.36;52.42
10145;BME280;5113;41.822;23.564;2023-12-14T00:10:16;-11249.22;;;11.38;52.47
10145;BME280;5113;41.822;23.564;2023-12-14T00:13:22;-11236.16;;;10.91;52.98
10145;BME280;5113;41.822;23.564;2023-12-14T00:16:31;-11249.22;;;11.38;52.39
10145;BME280;5113;41.822;23.564;2023-12-14T00:19:37;-11214.19;;;10.12;53.93
10145;BME280;5113;41.822;23.564;2023-12-14T00:22:44;-11227.13;;;10.58;53.15
10145;BME280;5113;41.822;23.564;2023-12-14T00:25:51;-11232.75;;;10.79;53.32
10145;BME280;5113;41.822;23.564;2023-12-14T00:28:57;-11235.88;;;10.90;52.66
10145;BME280;5113;41.822;23.564;2023-12-14T00:32:07;-11254.84;;;11.58;52.21
10145;BME280;5113;41.822;23.564;2023-12-14T00:35:14;-11208.56;;;9.91;55.23
10145;BME280;5113;41.822;23.564;2023-12-14T00:38:21;-11229.53;;;10.67;53.63
10145;BME280;5113;41.822;23.564;2023-12-14T00:41:28;-11229.66;;;10.68;52.95
10145;BME280;5113;41.822;23.564;2023-12-14T00:44:35;-11223.47;;;10.45;53.91
10145;BME280;5113;41.822;23.564;2023-12-14T00:47:43;-11227.56;;;10.60;54.47
10145;BME280;5113;41.822;23.564;2023-12-14T00:50:50;-11189.44;;;9.22;56.39
10145;BME280;5113;41.822;23.564;2023-12-14T00:53:56;-11197.19;;;9.50;56.75
10145;BME280;5113;41.822;23.564;2023-12-14T00:57:03;-11197.19;;;9.50;56.39
10145;BME280;5113;41.822;23.564;2023-12-14T01:00:11;-11232.19;;;10.77;53.36
10145;BME280;5113;41.822;23.564;2023-12-14T01:03:20;-11209.41;;;9.94;54.64
10145;BME280;5113;41.822;23.564;2023-12-14T01:06:27;-11215.88;;;10.18;53.43
10145;BME280;5113;41.822;23.564;2023-12-14T01:09:33;-11141.25;;;7.48;60.16
10145;BME280;5113;41.822;23.564;2023-12-14T01:12:40;-11224.19;;;10.48;53.90
10145;BME280;5113;41.822;23.564;2023-12-14T01:15:47;-11233.59;;;10.82;53.08
10145;BME280;5113;41.822;23.564;2023-12-14T01:18:54;-11237.28;;;10.95;52.51
10145;BME280;5113;41.822;23.564;2023-12-14T01:22:01;-11218.28;;;10.27;53.06
10145;BME280;5113;41.822;23.564;2023-12-14T01:25:08;-11171.75;;;8.58;57.44
10145;BME280;5113;41.822;23.564;2023-12-14T01:28:14;-11227.00;;;10.58;53.75
10145;BME280;5113;41.822;23.564;2023-12-14T01:31:20;-11188.88;;;9.20;56.57
10145;BME280;5113;41.822;23.564;2023-12-14T01:34:29;-11150.09;;;7.80;62.31
10145;BME280;5113;41.822;23.564;2023-12-14T01:37:36;-11194.94;;;9.42;56.67
10145;BME280;5113;41.822;23.564;2023-12-14T01:40:42;-11168.94;;;8.48;59.29
10145;BME280;5113;41.822;23.564;2023-12-14T01:43:49;-11221.22;;;10.37;54.96
10145;BME280;5113;41.822;23.564;2023-12-14T01:46:55;-11197.88;;;9.53;57.22
10145;BME280;5113;41.822;23.564;2023-12-14T01:50:04;-11205.19;;;9.79;57.30
10145;BME280;5113;41.822;23.564;2023-12-14T01:53:11;-11153.47;;;7.92;62.35
10145;BME280;5113;41.822;23.564;2023-12-14T01:56:17;-11207.44;;;9.87;57.13
10145;BME280;5113;41.822;23.564;2023-12-14T01:59:24;-11221.50;;;10.38;54.93
10145;BME280;5113;41.822;23.564;2023-12-14T02:02:30;-11148.41;;;7.74;63.09
10145;BME280;5113;41.822;23.564;2023-12-14T02:05:38;-11216.16;;;10.19;56.06
10145;BME280;5113;41.822;23.564;2023-12-14T02:08:45;-11240.78;;;11.08;53.19
10145;BME280;5113;41.822;23.564;2023-12-14T02:11:51;-11243.19;;;11.16;52.99
10145;BME280;5113;41.822;23.564;2023-12-14T02:14:59;-11230.66;;;10.71;54.30
10145;BME280;5113;41.822;23.564;2023-12-14T02:18:06;-11215.03;;;10.15;56.57
10145;BME280;5113;41.822;23.564;2023-12-14T02:21:14;-11261.47;;;11.82;52.96
10145;BME280;5113;41.822;23.564;2023-12-14T02:24:22;-11211.94;;;10.04;55.68
10145;BME280;5113;41.822;23.564;2023-12-14T02:27:28;-11214.63;;;10.13;56.87
10145;BME280;5113;41.822;23.564;2023-12-14T02:30:35;-11237.28;;;10.95;53.90
10145;BME280;5113;41.822;23.564;2023-12-14T02:33:42;-11215.59;;;10.17;55.34
10145;BME280;5113;41.822;23.564;2023-12-14T02:36:49;-11226.72;;;10.57;53.60
10145;BME280;5113;41.822;23.564;2023-12-14T02:39:56;-11246.84;;;11.30;54.34
10145;BME280;5113;41.822;23.564;2023-12-14T02:43:03;-11195.78;;;9.45;57.75
10145;BME280;5113;41.822;23.564;2023-12-14T02:46:09;-11249.09;;;11.38;53.04
10145;BME280;5113;41.822;23.564;2023-12-14T02:49:18;-11190.28;;;9.25;56.85
10145;BME280;5113;41.822;23.564;2023-12-14T02:52:26;-11231.91;;;10.76;54.40
10145;BME280;5113;41.822;23.564;2023-12-14T02:55:34;-11256.81;;;11.66;52.50
10145;BME280;5113;41.822;23.564;2023-12-14T02:58:41;-11239.66;;;11.04;53.46
10145;BME280;5113;41.822;23.564;2023-12-14T03:01:47;-11222.50;;;10.42;55.14
10145;BME280;5113;41.822;23.564;2023-12-14T03:04:54;-11257.38;;;11.68;52.05
10145;BME280;5113;41.822;23.564;2023-12-14T03:08:01;-11225.72;;;10.53;54.60
10145;BME280;5113;41.822;23.564;2023-12-14T03:11:09;-11266.81;;;12.02;52.77
10145;BME280;5113;41.822;23.564;2023-12-14T03:14:15;-11229.81;;;10.68;54.54
10145;BME280;5113;41.822;23.564;2023-12-14T03:17:21;-11255.84;;;11.62;52.87
10145;BME280;5113;41.822;23.564;2023-12-14T03:20:27;-11249.37;;;11.39;53.35
10145;BME280;5113;41.822;23.564;2023-12-14T03:23:34;-11214.75;;;10.14;55.43
10145;BME280;5113;41.822;23.564;2023-12-14T03:26:41;-11215.88;;;10.18;56.59
10145;BME280;5113;41.822;23.564;2023-12-14T03:29:48;-11174.81;;;8.70;61.74
10145;BME280;5113;41.822;23.564;2023-12-14T03:32:54;-11251.19;;;11.45;54.19
10145;BME280;5113;41.822;23.564;2023-12-14T03:36:01;-11251.91;;;11.48;52.99
10145;BME280;5113;41.822;23.564;2023-12-14T03:39:07;-11223.47;;;10.45;55.60
10145;BME280;5113;41.822;23.564;2023-12-14T03:42:16;-11230.09;;;10.69;56.92
10145;BME280;5113;41.822;23.564;2023-12-14T03:45:22;-11212.22;;;10.05;56.89
10145;BME280;5113;41.822;23.564;2023-12-14T03:48:29;-11248.09;;;11.34;54.74
10145;BME280;5113;41.822;23.564;2023-12-14T03:51:36;-11195.63;;;9.45;60.02
10145;BME280;5113;41.822;23.564;2023-12-14T03:54:43;-11242.03;;;11.12;55.46
10145;BME280;5113;41.822;23.564;2023-12-14T03:57:50;-11239.78;;;11.04;55.23
10145;BME280;5113;41.822;23.564;2023-12-14T04:00:57;-11231.63;;;10.75;56.36
10145;BME280;5113;41.822;23.564;2023-12-14T04:04:03;-11248.81;;;11.37;54.84
10145;BME280;5113;41.822;23.564;2023-12-14T04:07:10;-11240.06;;;11.05;54.96
10145;BME280;5113;41.822;23.564;2023-12-14T04:10:16;-11207.72;;;9.88;57.52
10145;BME280;5113;41.822;23.564;2023-12-14T04:13:24;-11224.31;;;10.48;58.00
10145;BME280;5113;41.822;23.564;2023-12-14T04:16:31;-11270.91;;;12.16;52.84
10145;BME280;5113;41.822;23.564;2023-12-14T04:19:38;-11265.28;;;11.96;53.17
10145;BME280;5113;41.822;23.564;2023-12-14T04:22:44;-11254.16;;;11.56;54.32
10145;BME280;5113;41.822;23.564;2023-12-14T04:25:51;-11241.91;;;11.12;54.71
10145;BME280;5113;41.822;23.564;2023-12-14T04:29:00;-11269.06;;;12.10;52.85
10145;BME280;5113;41.822;23.564;2023-12-14T04:32:07;-11232.75;;;10.79;56.19
10145;BME280;5113;41.822;23.564;2023-12-14T04:35:13;-11246.84;;;11.30;54.76
10145;BME280;5113;41.822;23.564;2023-12-14T04:38:20;-11214.47;;;10.13;56.91
10145;BME280;5113;41.822;23.564;2023-12-14T04:41:26;-11247.13;;;11.31;54.52
10145;BME280;5113;41.822;23.564;2023-12-14T04:44:34;-11226.28;;;10.55;56.52
10145;BME280;5113;41.822;23.564;2023-12-14T04:47:41;-11273.72;;;12.27;52.60
10145;BME280;5113;41.822;23.564;2023-12-14T04:50:47;-11228.69;;;10.64;56.55
10145;BME280;5113;41.822;23.564;2023-12-14T04:53:54;-11229.66;;;10.68;56.06
10145;BME280;5113;41.822;23.564;2023-12-14T04:57:00;-11259.34;;;11.75;54.64
10145;BME280;5113;41.822;23.564;2023-12-14T05:00:09;-11243.47;;;11.17;56.62
10145;BME280;5113;41.822;23.564;2023-12-14T05:03:16;-11262.72;;;11.87;53.79
10145;BME280;5113;41.822;23.564;2023-12-14T05:06:23;-11245.44;;;11.24;54.64
10145;BME280;5113;41.822;23.564;2023-12-14T05:09:29;-11256.41;;;11.64;54.27
10145;BME280;5113;41.822;23.564;2023-12-14T05:12:36;-11267.53;;;12.04;52.58
10145;BME280;5113;41.822;23.564;2023-12-14T05:15:45;-11284.28;;;12.65;52.86
10145;BME280;5113;41.822;23.564;2023-12-14T05:18:52;-11287.91;;;12.78;51.66
10145;BME280;5113;41.822;23.564;2023-12-14T05:21:58;-11277.78;;;12.41;52.29
10145;BME280;5113;41.822;23.564;2023-12-14T05:25:05;-11287.91;;;12.78;51.66
10145;BME280;5113;41.822;23.564;2023-12-14T05:28:12;-11280.31;;;12.50;52.03
10145;BME280;5113;41.822;23.564;2023-12-14T05:31:20;-11283.13;;;12.61;52.42
10145;BME280;5113;41.822;23.564;2023-12-14T05:34:26;-11248.81;;;11.37;54.21
10145;BME280;5113;41.822;23.564;2023-12-14T05:37:33;-11264.84;;;11.95;53.64
10145;BME280;5113;41.822;23.564;2023-12-14T05:40:40;-11278.06;;;12.42;52.64
10145;BME280;5113;41.822;23.564;2023-12-14T05:43:47;-11282.00;;;12.56;51.63
10145;BME280;5113;41.822;23.564;2023-12-14T05:46:55;-11264.56;;;11.94;54.33
10145;BME280;5113;41.822;23.564;2023-12-14T05:50:03;-11259.78;;;11.76;53.50
10145;BME280;5113;41.822;23.564;2023-12-14T05:53:10;-11252.03;;;11.48;55.21
10145;BME280;5113;41.822;23.564;2023-12-14T05:56:17;-11252.03;;;11.48;54.96
10145;BME280;5113;41.822;23.564;2023-12-14T05:59:23;-11246.00;;;11.27;55.23
10145;BME280;5113;41.822;23.564;2023-12-14T06:02:31;-11246.00;;;11.27;55.12
10145;BME280;5113;41.822;23.564;2023-12-14T06:05:39;-11252.19;;;11.49;54.70
10145;BME280;5113;41.822;23.564;2023-12-14T06:08:45;-11243.31;;;11.17;56.13
10145;BME280;5113;41.822;23.564;2023-12-14T06:11:53;-11262.31;;;11.85;54.00
10145;BME280;5113;41.822;23.564;2023-12-14T06:15:00;-11253.59;;;11.54;54.66
10145;BME280;5113;41.822;23.564;2023-12-14T06:18:08;-11278.63;;;12.44;53.40
10145;BME280;5113;41.822;23.564;2023-12-14T06:21:15;-11230.22;;;10.70;56.72
10145;BME280;5113;41.822;23.564;2023-12-14T06:24:21;-11242.31;;;11.13;55.71
10145;BME280;5113;41.822;23.564;2023-12-14T06:27:28;-11265.28;;;11.96;54.34
10145;BME280;5113;41.822;23.564;2023-12-14T06:30:35;-11247.97;;;11.34;54.48
10145;BME280;5113;41.822;23.564;2023-12-14T06:33:42;-11213.63;;;10.10;57.96
10145;BME280;5113;41.822;23.564;2023-12-14T06:36:49;-11237.84;;;10.97;54.80
10145;BME280;5113;41.822;23.564;2023-12-14T06:39:55;-11214.19;;;10.12;58.01
10145;BME280;5113;41.822;23.564;2023-12-14T06:43:04;-11252.47;;;11.50;55.60
10145;BME280;5113;41.822;23.564;2023-12-14T06:46:11;-11249.37;;;11.39;55.52
10145;BME280;5113;41.822;23.564;2023-12-14T06:49:19;-11287.50;;;12.76;53.42
10145;BME280;5113;41.822;23.564;2023-12-14T06:52:25;-11249.50;;;11.39;56.31
10145;BME280;5113;41.822;23.564;2023-12-14T06:55:31;-11267.09;;;12.03;54.60
10145;BME280;5113;41.822;23.564;2023-12-14T06:58:39;-11206.31;;;9.83;62.89
10145;BME280;5113;41.822;23.564;2023-12-14T07:01:46;-11260.34;;;11.78;56.08
10145;BME280;5113;41.822;23.564;2023-12-14T07:04:54;-11273.72;;;12.27;55.02
10145;BME280;5113;41.822;23.564;2023-12-14T07:08:00;-11271.03;;;12.17;54.40
10145;BME280;5113;41.822;23.564;2023-12-14T07:11:07;-11264.84;;;11.95;54.71
10145;BME280;5113;41.822;23.564;2023-12-14T07:14:14;-11269.63;;;12.12;55.59
10145;BME280;5113;41.822;23.564;2023-12-14T07:17:21;-11244.72;;;11.22;56.63
10145;BME280;5113;41.822;23.564;2023-12-14T07:20:29;-11241.75;;;11.11;58.37
10145;BME280;5113;41.822;23.564;2023-12-14T07:23:36;-11253.59;;;11.54;55.66
10145;BME280;5113;41.822;23.564;2023-12-14T07:26:43;-11265.41;;;11.97;55.55
10145;BME280;5113;41.822;23.564;2023-12-14T07:29:50;-11258.22;;;11.71;56.53
10145;BME280;5113;41.822;23.564;2023-12-14T07:32:56;-11308.19;;;13.51;52.68
10145;BME280;5113;41.822;23.564;2023-12-14T07:36:06;-11321.44;;;13.99;51.39
10145;BME280;5113;41.822;23.564;2023-12-14T07:39:12;-11262.59;;;11.86;55.25
10145;BME280;5113;41.822;23.564;2023-12-14T07:42:19;-11293.00;;;12.96;53.04
10145;BME280;5113;41.822;23.564;2023-12-14T07:45:25;-11271.03;;;12.17;55.61
10145;BME280;5113;41.822;23.564;2023-12-14T07:48:32;-11284.97;;;12.67;53.24
10145;BME280;5113;41.822;23.564;2023-12-14T07:51:40;-11318.91;;;13.89;52.18
10145;BME280;5113;41.822;23.564;2023-12-14T07:54:46;-11292.16;;;12.93;54.16
10145;BME280;5113;41.822;23.564;2023-12-14T07:57:53;-11290.19;;;12.86;54.42
10145;BME280;5113;41.822;23.564;2023-12-14T08:01:00;-11330.16;;;14.30;52.29
10145;BME280;5113;41.822;23.564;2023-12-14T08:04:07;-11308.47;;;13.52;53.61
10145;BME280;5113;41.822;23.564;2023-12-14T08:07:17;-11284.69;;;12.66;55.50
10145;BME280;5113;41.822;23.564;2023-12-14T08:10:23;-11314.25;;;13.73;53.76
10145;BME280;5113;41.822;23.564;2023-12-14T08:13:30;-11293.56;;;12.98;54.15
10145;BME280;5113;41.822;23.564;2023-12-14T08:16:37;-11303.97;;;13.36;55.33
10145;BME280;5113;41.822;23.564;2023-12-14T08:19:44;-11276.94;;;12.38;57.28
10145;BME280;5113;41.822;23.564;2023-12-14T08:22:52;-11307.78;;;13.49;55.39
10145;BME280;5113;41.822;23.564;2023-12-14T08:25:59;-11339.47;;;14.64;52.14
10145;BME280;5113;41.822;23.564;2023-12-14T08:29:06;-11290.75;;;12.88;55.43
10145;BME280;5113;41.822;23.564;2023-12-14T08:32:12;-11320.44;;;13.95;54.45
10145;BME280;5113;41.822;23.564;2023-12-14T08:35:19;-11310.31;;;13.59;54.58
10145;BME280;5113;41.822;23.564;2023-12-14T08:38:27;-11324.81;;;14.11;53.89
10145;BME280;5113;41.822;23.564;2023-12-14T08:41:34;-11269.22;;;12.10;58.32
10145;BME280;5113;41.822;23.564;2023-12-14T08:44:41;-11290.19;;;12.86;57.38
10145;BME280;5113;41.822;23.564;2023-12-14T08:47:47;-11323.13;;;14.05;54.27
10145;BME280;5113;41.822;23.564;2023-12-14T08:50:54;-11334.66;;;14.46;53.12
10145;BME280;5113;41.822;23.564;2023-12-14T08:54:02;-11323.97;;;14.08;54.42
10145;BME280;5113;41.822;23.564;2023-12-14T08:57:09;-11320.59;;;13.96;54.19
10145;BME280;5113;41.822;23.564;2023-12-14T09:00:16;-11323.97;;;14.08;53.72
10145;BME280;5113;41.822;23.564;2023-12-14T09:03:23;-11320.59;;;13.96;54.44
10145;BME280;5113;41.822;23.564;2023-12-14T09:06:31;-11340.16;;;14.66;52.38
10145;BME280;5113;41.822;23.564;2023-12-14T09:09:39;-11315.25;;;13.76;54.36
10145;BME280;5113;41.822;23.564;2023-12-14T09:12:46;-11295.81;;;13.06;57.33
10145;BME280;5113;41.822;23.564;2023-12-14T09:15:53;-11306.50;;;13.45;55.56
10145;BME280;5113;41.822;23.564;2023-12-14T09:19:00;-11328.63;;;14.25;54.13
10145;BME280;5113;41.822;23.564;2023-12-14T09:22:07;-11302.28;;;13.30;57.03
10145;BME280;5113;41.822;23.564;2023-12-14T09:25:15;-11318.06;;;13.86;56.74
10145;BME280;5113;41.822;23.564;2023-12-14T09:28:23;-11303.13;;;13.33;57.36
10145;BME280;5113;41.822;23.564;2023-12-14T09:31:29;-11319.47;;;13.92;54.98
10145;BME280;5113;41.822;23.564;2023-12-14T09:34:36;-11298.78;;;13.17;57.02
10145;BME280;5113;41.822;23.564;2023-12-14T09:37:43;-11356.38;;;15.25;53.25
10145;BME280;5113;41.822;23.564;2023-12-14T09:40:51;-11330.59;;;14.32;55.56
10145;BME280;5113;41.822;23.564;2023-12-14T09:43:58;-11313.00;;;13.68;55.50
10145;BME280;5113;41.822;23.564;2023-12-14T09:47:05;-11338.47;;;14.60;54.86
10145;BME280;5113;41.822;23.564;2023-12-14T09:50:12;-11334.09;;;14.44;54.49
10145;BME280;5113;41.822;23.564;2023-12-14T09:53:21;-11366.94;;;15.63;52.03
10145;BME280;5113;41.822;23.564;2023-12-14T09:56:29;-11343.69;;;14.79;54.59
10145;BME280;5113;41.822;23.564;2023-12-14T09:59:37;-11341.44;;;14.71;54.69
10145;BME280;5113;41.822;23.564;2023-12-14T10:02:44;-11351.56;;;15.07;53.51
10145;BME280;5113;41.822;23.564;2023-12-14T10:05:55;-11320.59;;;13.96;55.83
10145;BME280;5113;41.822;23.564;2023-12-14T10:09:02;-11309.88;;;13.57;58.70
10145;BME280;5113;41.822;23.564;2023-12-14T10:12:11;-11360.31;;;15.39;54.23
10145;BME280;5113;41.822;23.564;2023-12-14T10:15:17;-11367.22;;;15.64;52.92
10145;BME280;5113;41.822;23.564;2023-12-14T10:18:25;-11371.72;;;15.80;52.95
10145;BME280;5113;41.822;23.564;2023-12-14T10:21:35;-11374.13;;;15.89;52.62
10145;BME280;5113;41.822;23.564;2023-12-14T10:24:43;-11327.63;;;14.21;55.75
10145;BME280;5113;41.822;23.564;2023-12-14T10:27:52;-11322.69;;;14.03;55.72
10145;BME280;5113;41.822;23.564;2023-12-14T10:31:00;-11344.09;;;14.80;55.35
10145;BME280;5113;41.822;23.564;2023-12-14T10:34:07;-11350.88;;;15.05;54.13
10145;BME280;5113;41.822;23.564;2023-12-14T10:37:14;-11367.50;;;15.65;52.75
10145;BME280;5113;41.822;23.564;2023-12-14T10:40:23;-11367.06;;;15.63;53.49
10145;BME280;5113;41.822;23.564;2023-12-14T10:43:35;-11331.28;;;14.34;55.29
10145;BME280;5113;41.822;23.564;2023-12-14T10:46:55;-11365.38;;;15.57;53.22
10145;BME280;5113;41.822;23.564;2023-12-14T10:50:02;-11358.47;;;15.32;54.19
10145;BME280;5113;41.822;23.564;2023-12-14T10:53:11;-11378.91;;;16.06;52.84
10145;BME280;5113;41.822;23.564;2023-12-14T10:56:18;-11386.22;;;16.32;51.73
10145;BME280;5113;41.822;23.564;2023-12-14T10:59:26;-11383.97;;;16.24;52.67
10145;BME280;5113;41.822;23.564;2023-12-14T11:02:39;-11408.50;;;17.12;50.44
10145;BME280;5113;41.822;23.564;2023-12-14T11:05:48;-11359.87;;;15.37;54.43
10145;BME280;5113;41.822;23.564;2023-12-14T11:08:57;-11374.97;;;15.92;53.75
10145;BME280;5113;41.822;23.564;2023-12-14T11:12:06;-11395.69;;;16.66;52.76
10145;BME280;5113;41.822;23.564;2023-12-14T11:15:17;-11413.28;;;17.30;50.56
10145;BME280;5113;41.822;23.564;2023-12-14T11:18:25;-11417.94;;;17.46;50.09
10145;BME280;5113;41.822;23.564;2023-12-14T11:21:33;-11425.41;;;17.73;50.34
10145;BME280;5113;41.822;23.564;2023-12-14T11:24:41;-11439.22;;;18.23;49.33
10145;BME280;5113;41.822;23.564;2023-12-14T11:27:49;-11382.28;;;16.18;51.88
10145;BME280;5113;41.822;23.564;2023-12-14T11:30:58;-11415.25;;;17.37;51.34
10145;BME280;5113;41.822;23.564;2023-12-14T11:34:06;-11419.78;;;17.53;49.58
10145;BME280;5113;41.822;23.564;2023-12-14T11:37:13;-11452.91;;;18.72;47.66
10145;BME280;5113;41.822;23.564;2023-12-14T11:40:20;-11379.91;;;16.09;52.44
10145;BME280;5113;41.822;23.564;2023-12-14T11:43:28;-11412.88;;;17.28;50.00
10145;BME280;5113;41.822;23.564;2023-12-14T11:46:36;-11424.84;;;17.71;49.96
10145;BME280;5113;41.822;23.564;2023-12-14T11:49:43;-11390.19;;;16.46;52.01
10145;BME280;5113;41.822;23.564;2023-12-14T11:52:49;-11406.81;;;17.06;50.94
10145;BME280;5113;41.822;23.564;2023-12-14T11:55:59;-11449.94;;;18.62;48.87
10145;BME280;5113;41.822;23.564;2023-12-14T11:59:10;-11428.25;;;17.84;49.68
10145;BME280;5113;41.822;23.564;2023-12-14T12:02:24;-11392.44;;;16.55;52.52
10145;BME280;5113;41.822;23.564;2023-12-14T12:05:35;-11483.22;;;19.82;46.30
10145;BME280;5113;41.822;23.564;2023-12-14T12:08:42;-11432.03;;;17.97;49.12
10145;BME280;5113;41.822;23.564;2023-12-14T12:11:49;-11414.41;;;17.34;50.21
10145;BME280;5113;41.822;23.564;2023-12-14T12:14:59;-11453.34;;;18.74;48.07
10145;BME280;5113;41.822;23.564;2023-12-14T12:18:08;-11415.69;;;17.38;50.84
10145;BME280;5113;41.822;23.564;2023-12-14T12:21:15;-11428.25;;;17.84;49.99
10145;BME280;5113;41.822;23.564;2023-12-14T12:24:21;-11474.75;;;19.51;46.48
10145;BME280;5113;41.822;23.564;2023-12-14T12:27:31;-11463.63;;;19.11;47.13
10145;BME280;5113;41.822;23.564;2023-12-14T12:30:39;-11475.63;;;19.54;46.21
10145;BME280;5113;41.822;23.564;2023-12-14T12:33:48;-11455.03;;;18.80;47.94
10145;BME280;5113;41.822;23.564;2023-12-14T12:36:55;-11444.16;;;18.41;49.26
10145;BME280;5113;41.822;23.564;2023-12-14T12:40:03;-11467.72;;;19.26;47.57
10145;BME280;5113;41.822;23.564;2023-12-14T12:43:10;-11430.50;;;17.92;49.92
10145;BME280;5113;41.822;23.564;2023-12-14T12:46:17;-11439.66;;;18.25;49.20
10145;BME280;5113;41.822;23.564;2023-12-14T12:49:24;-11421.88;;;17.61;50.70
10145;BME280;5113;41.822;23.564;2023-12-14T12:52:32;-11442.34;;;18.34;48.81
10145;BME280;5113;41.822;23.564;2023-12-14T12:55:38;-11455.03;;;18.80;48.13
10145;BME280;5113;41.822;23.564;2023-12-14T12:58:46;-11415.12;;;17.36;51.17
10145;BME280;5113;41.822;23.564;2023-12-14T13:01:54;-11454.75;;;18.79;48.20
10145;BME280;5113;41.822;23.564;2023-12-14T13:05:02;-11483.22;;;19.82;47.15
10145;BME280;5113;41.822;23.564;2023-12-14T13:08:11;-11452.75;;;18.72;48.64
10145;BME280;5113;41.822;23.564;2023-12-14T13:11:18;-11456.56;;;18.86;47.96
10145;BME280;5113;41.822;23.564;2023-12-14T13:14:24;-11439.09;;;18.23;49.93
10145;BME280;5113;41.822;23.564;2023-12-14T13:17:31;-11408.50;;;17.12;51.22
10145;BME280;5113;41.822;23.564;2023-12-14T13:20:39;-11442.63;;;18.35;49.57
10145;BME280;5113;41.822;23.564;2023-12-14T13:23:46;-11475.06;;;19.52;47.17
10145;BME280;5113;41.822;23.564;2023-12-14T13:26:53;-11405.69;;;17.02;52.29
10145;BME280;5113;41.822;23.564;2023-12-14T13:30:00;-11449.94;;;18.62;48.87
10145;BME280;5113;41.822;23.564;2023-12-14T13:33:07;-11457.84;;;18.90;48.58
10145;BME280;5113;41.822;23.564;2023-12-14T13:36:15;-11466.44;;;19.21;48.35
10145;BME280;5113;41.822;23.564;2023-12-14T13:39:23;-11470.53;;;19.36;47.78
10145;BME280;5113;41.822;23.564;2023-12-14T13:42:30;-11423.59;;;17.67;51.05
10145;BME280;5113;41.822;23.564;2023-12-14T13:45:37;-11466.31;;;19.21;47.79
10145;BME280;5113;41.822;23.564;2023-12-14T13:48:43;-11449.38;;;18.60;49.02
10145;BME280;5113;41.822;23.564;2023-12-14T13:51:51;-11407.78;;;17.10;52.58
10145;BME280;5113;41.822;23.564;2023-12-14T13:54:59;-11444.31;;;18.41;49.77
10145;BME280;5113;41.822;23.564;2023-12-14T13:58:05;-11470.38;;;19.35;47.90
10145;BME280;5113;41.822;23.564;2023-12-14T14:01:12;-11478.44;;;19.64;47.10
10145;BME280;5113;41.822;23.564;2023-12-14T14:04:19;-11483.94;;;19.84;46.38
10145;BME280;5113;41.822;23.564;2023-12-14T14:07:27;-11487.47;;;19.97;46.53
10145;BME280;5113;41.822;23.564;2023-12-14T14:10:34;-11386.22;;;16.32;53.94
10145;BME280;5113;41.822;23.564;2023-12-14T14:13:40;-11452.19;;;18.70;48.76
10145;BME280;5113;41.822;23.564;2023-12-14T14:16:47;-11455.44;;;18.82;48.75
10145;BME280;5113;41.822;23.564;2023-12-14T14:19:53;-11421.19;;;17.58;51.22
10145;BME280;5113;41.822;23.564;2023-12-14T14:23:01;-11413.00;;;17.29;52.47
10145;BME280;5113;41.822;23.564;2023-12-14T14:26:08;-11437.53;;;18.17;49.80
10145;BME280;5113;41.822;23.564;2023-12-14T14:29:15;-11447.69;;;18.54;48.68
10145;BME280;5113;41.822;23.564;2023-12-14T14:32:23;-11409.63;;;17.16;50.79
10145;BME280;5113;41.822;23.564;2023-12-14T14:35:31;-11432.47;;;17.99;50.14
10145;BME280;5113;41.822;23.564;2023-12-14T14:38:40;-11407.09;;;17.07;52.42
10145;BME280;5113;41.822;23.564;2023-12-14T14:41:48;-11389.63;;;16.44;54.11
10145;BME280;5113;41.822;23.564;2023-12-14T14:44:54;-11394.13;;;16.61;53.93
10145;BME280;5113;41.822;23.564;2023-12-14T14:48:01;-11381.44;;;16.15;54.78
10145;BME280;5113;41.822;23.564;2023-12-14T14:51:08;-11394.81;;;16.63;52.98
10145;BME280;5113;41.822;23.564;2023-12-14T14:54:16;-11373.00;;;15.84;55.13
10145;BME280;5113;41.822;23.564;2023-12-14T14:57:23;-11370.72;;;15.76;55.57
10145;BME280;5113;41.822;23.564;2023-12-14T15:00:29;-11399.91;;;16.81;52.96
10145;BME280;5113;41.822;23.564;2023-12-14T15:03:38;-11402.72;;;16.92;52.56
10145;BME280;5113;41.822;23.564;2023-12-14T15:06:44;-11373.69;;;15.87;54.40
10145;BME280;5113;41.822;23.564;2023-12-14T15:09:52;-11380.47;;;16.11;54.03
10145;BME280;5113;41.822;23.564;2023-12-14T15:12:59;-11375.09;;;15.92;53.89
10145;BME280;5113;41.822;23.564;2023-12-14T15:16:06;-11401.16;;;16.86;52.08
10145;BME280;5113;41.822;23.564;2023-12-14T15:19:13;-11386.22;;;16.32;52.79
10145;BME280;5113;41.822;23.564;2023-12-14T15:22:20;-11366.50;;;15.61;54.67
10145;BME280;5113;41.822;23.564;2023-12-14T15:25:28;-11406.38;;;17.05;51.19
10145;BME280;5113;41.822;23.564;2023-12-14T15:28:36;-11373.56;;;15.87;53.56
10145;BME280;5113;41.822;23.564;2023-12-14T15:31:43;-11377.50;;;16.01;53.76
10145;BME280;5113;41.822;23.564;2023-12-14T15:34:49;-11380.03;;;16.10;53.57
10145;BME280;5113;41.822;23.564;2023-12-14T15:37:56;-11371.00;;;15.77;54.14
10145;BME280;5113;41.822;23.564;2023-12-14T15:41:04;-11396.66;;;16.70;52.62
10145;BME280;5113;41.822;23.564;2023-12-14T15:44:10;-11333.28;;;14.41;57.16
10145;BME280;5113;41.822;23.564;2023-12-14T15:47:17;-11357.78;;;15.30;56.48
10145;BME280;5113;41.822;23.564;2023-12-14T15:50:26;-11303.41;;;13.34;61.64
10145;BME280;5113;41.822;23.564;2023-12-14T15:53:33;-11351.28;;;15.06;56.00
10145;BME280;5113;41.822;23.564;2023-12-14T15:56:41;-11390.47;;;16.47;53.32
10145;BME280;5113;41.822;23.564;2023-12-14T15:59:47;-11340.31;;;14.67;57.91
10145;BME280;5113;41.822;23.564;2023-12-14T16:02:55;-11377.91;;;16.02;53.89
10145;BME280;5113;41.822;23.564;2023-12-14T16:06:02;-11350.59;;;15.04;56.45
10145;BME280;5113;41.822;23.564;2023-12-14T16:09:09;-11354.66;;;15.18;55.45
10145;BME280;5113;41.822;23.564;2023-12-14T16:12:17;-11337.34;;;14.56;57.61
10145;BME280;5113;41.822;23.564;2023-12-14T16:15:24;-11332.28;;;14.38;56.84
10145;BME280;5113;41.822;23.564;2023-12-14T16:18:31;-11362.00;;;15.45;55.40